Latest Weather Observations for Roseworthy

IDS60901

Issued at 4:31 pm CST Friday 19 April 2019 (issued every 10 minutes, with the page automatically refreshed every 10 minutes)

About weather observations | Map of Adelaide area stations | Latest observations for Adelaide area | Other Formats
Station Details ID: 023122 Name: ROSEWORTHY AWS Lat: -34.51 Lon: 138.68 Height: 65.0 m
Data from the previous 72 hours. | See also: Recent months at Roseworthy
Date/Time
CST
Temp
°C
App
Temp
°C
Dew
Point
°C
Rel
Hum
%
Delta-T
°C
Wind Press
QNH
hPa
Press
MSL
hPa
Rain since
9am
mm
Dir  Spd
km/h
Gust
km/h
Spd
kts
Gust
kts
19/04:30pm 31.8 25.1 3.8 17 14.4 NE 28 33 15 18 1017.5 1017.4 0.0
19/04:00pm 32.5 25.8 3.5 16 15.0 NE 28 33 15 18 1017.7 1017.6 0.0
19/03:30pm 32.3 25.9 3.3 16 14.9 NE 26 33 14 18 1017.6 1017.5 0.0
19/03:00pm 33.3 29.0 3.2 15 15.5 NNE 15 24 8 13 1017.6 1017.5 0.0
19/02:30pm 33.9 27.8 2.7 14 16.0 NNW 24 35 13 19 1017.9 1017.8 0.0
19/02:00pm 33.1 27.4 3.0 15 15.5 NNW 22 33 12 18 1018.0 1017.9 0.0
19/01:30pm 34.0 28.3 2.8 14 16.0 NNW 22 33 12 18 1018.3 1018.2 0.0
19/01:00pm 33.4 27.4 3.3 15 15.6 NNW 24 35 13 19 1018.7 1018.6 0.0
19/12:30pm 32.4 26.4 3.4 16 14.9 NNW 24 33 13 18 1019.4 1019.3 0.0
19/12:00pm 31.7 25.6 2.8 16 14.6 N 24 33 13 18 1020.0 1019.9 0.0
19/11:30am 31.2 26.1 4.1 18 14.0 NNE 20 30 11 16 1020.5 1020.4 0.0
19/11:00am 30.8 24.6 4.5 19 13.7 NNE 26 32 14 17 1021.0 1020.9 0.0
19/10:30am 28.2 21.8 3.1 20 12.5 NE 26 32 14 17 1021.4 1021.3 0.0
19/10:00am 27.1 20.6 2.9 21 12.0 NE 26 33 14 18 1021.7 1021.6 0.0
19/09:30am 25.0 17.2 1.8 22 11.0 NE 32 43 17 23 1021.9 1021.8 0.0
19/09:00am 22.3 13.8 0.8 24 9.8 NE 35 44 19 24 1022.2 1022.1 0.0
19/08:30am 21.0 12.3 -0.3 24 9.4 NE 35 44 19 24 1022.3 1022.2 0.0
19/08:00am 20.1 11.0 -0.5 25 9.0 NE 37 46 20 25 1022.1 1022.0 0.0
19/07:30am 18.7 8.8 -1.2 26 8.5 ENE 41 52 22 28 1021.5 1021.4 0.0
19/07:00am 18.0 8.4 -1.3 27 8.2 ENE 39 46 21 25 1021.4 1021.3 0.0
19/06:30am 17.9 8.3 -1.3 27 8.1 ENE 39 50 21 27 1021.2 1021.1 0.0
19/06:00am 18.0 8.0 -1.3 27 8.1 ENE 41 50 22 27 1021.2 1021.1 0.0
19/05:30am 18.1 7.7 -1.7 26 8.3 ENE 43 56 23 30 1021.2 1021.1 0.0
19/05:00am 17.7 7.3 -2.0 26 8.2 ENE 43 54 23 29 1021.1 1021.0 0.0
19/04:30am 17.4 7.4 -1.8 27 8.0 ENE 41 54 22 29 1021.2 1021.1 0.0
19/04:00am 16.9 7.7 -1.7 28 7.7 ENE 37 48 20 26 1021.2 1021.1 0.0
19/03:30am 16.9 8.0 -1.7 28 7.7 ENE 35 46 19 25 1021.4 1021.3 0.0
19/03:00am 17.1 8.3 -1.5 28 7.8 ENE 35 44 19 24 1021.3 1021.2 0.0
19/02:30am 16.6 7.7 -2.0 28 7.6 ENE 35 46 19 25 1021.5 1021.4 0.0
19/02:00am 16.9 8.0 -1.7 28 7.7 ENE 35 43 19 23 1022.1 1022.0 0.0
19/01:30am 17.4 8.5 -1.8 27 8.0 ENE 35 44 19 24 1022.2 1022.1 0.0
19/01:00am 17.7 9.4 -2.0 26 8.2 ENE 32 43 17 23 1022.5 1022.4 0.0
19/12:30am 18.1 9.7 -2.2 25 8.4 ENE 32 46 17 25 1022.6 1022.5 0.0
19/12:00am 17.9 9.6 -1.9 26 8.2 E 32 43 17 23 1022.8 1022.7 0.0
 
Date/Time
CST
Temp
°C
App
Temp
°C
Dew
Point
°C
Rel
Hum
%
Delta-T
°C
Wind Press
QNH
hPa
Press
MSL
hPa
Rain since
9am
mm
Dir  Spd
km/h
Gust
km/h
Spd
kts
Gust
kts
18/11:30pm 18.0 9.5 -1.8 26 8.3 ENE 33 39 18 21 1022.8 1022.7 0.0
18/11:00pm 18.1 9.6 -1.7 26 8.3 E 33 41 18 22 1023.1 1023.0 0.0
18/10:30pm 18.3 9.8 -1.5 26 8.3 E 33 41 18 22 1023.2 1023.1 0.0
18/10:00pm 18.5 10.3 -1.3 26 8.4 E 32 41 17 22 1023.4 1023.3 0.0
18/09:30pm 18.4 10.2 -0.9 27 8.2 E 32 41 17 22 1023.3 1023.2 0.0
18/09:00pm 18.2 10.7 -1.1 27 8.2 E 28 35 15 19 1023.3 1023.2 0.0
18/08:30pm 18.3 10.5 -1.0 27 8.2 E 30 37 16 20 1023.1 1023.0 0.0
18/08:00pm 18.4 11.4 -0.4 28 8.1 E 26 32 14 17 1023.2 1023.1 0.0
18/07:30pm 18.9 12.7 0.0 28 8.3 E 22 32 12 17 1023.3 1023.2 0.0
18/07:00pm 19.0 12.9 0.1 28 8.3 E 22 28 12 15 1023.1 1023.0 0.0
18/06:30pm 19.4 13.7 0.4 28 8.4 E 20 26 11 14 1023.0 1022.9 0.0
18/06:00pm 20.1 14.0 0.5 27 8.7 E 22 30 12 16 1022.8 1022.7 0.0
18/05:30pm 21.1 14.7 0.9 26 9.2 E 24 32 13 17 1022.8 1022.7 0.0
18/05:00pm 21.4 14.6 0.6 25 9.4 E 26 35 14 19 1022.8 1022.7 0.0
18/04:30pm 22.6 16.2 1.0 24 9.9 E 24 33 13 18 1022.8 1022.7 0.0
18/04:00pm 23.4 17.1 1.7 24 10.2 E 24 30 13 16 1023.0 1022.9 0.0
18/03:30pm 23.2 16.9 1.5 24 10.1 E 24 32 13 17 1023.1 1023.0 0.0
18/03:00pm 23.0 17.5 1.9 25 9.9 E 20 28 11 15 1023.4 1023.3 0.0
18/02:30pm 22.9 17.0 1.9 25 9.8 ENE 22 32 12 17 1023.5 1023.4 0.0
18/02:00pm 22.3 16.8 1.9 26 9.6 ENE 20 30 11 16 1023.8 1023.7 0.0
18/01:30pm 22.3 16.1 1.9 26 9.5 ENE 24 37 13 20 1023.8 1023.7 0.0
18/01:00pm 21.2 14.1 1.5 27 9.1 E 28 41 15 22 1024.3 1024.2 0.0
18/12:30pm 21.6 14.7 2.8 29 8.9 E 28 41 15 22 1024.8 1024.7 0.0
18/12:00pm 21.2 14.0 3.0 30 8.6 E 30 43 16 23 1025.4 1025.3 0.0
18/11:30am 19.9 13.3 4.4 36 7.4 ENE 28 39 15 21 1026.0 1025.9 0.0
18/11:00am 19.5 13.0 4.8 38 7.1 E 28 39 15 21 1026.4 1026.3 0.0
18/10:30am 18.5 11.4 5.7 43 6.2 E 32 41 17 22 1026.5 1026.4 0.0
18/10:00am 18.1 11.9 6.0 45 6.0 E 28 43 15 23 1026.7 1026.6 0.0
18/09:30am 17.2 10.7 6.7 50 5.2 E 30 41 16 22 1026.8 1026.7 0.0
18/09:00am 16.4 10.3 6.5 52 4.8 E 28 35 15 19 1027.0 1026.9 0.0
18/08:30am 15.6 8.8 6.9 56 4.3 E 32 43 17 23 1027.0 1026.9 0.0
18/08:00am 14.3 8.3 7.1 62 3.5 E 28 33 15 18 1026.8 1026.7 0.0
18/07:59am 14.3 8.3 7.1 62 3.5 E 28 33 15 18 1026.8 1026.7 0.0
18/07:30am 10.9 8.4 8.0 82 1.4 ENE 11 15 6 8 1026.8 1026.7 0.0
18/07:00am 7.8 5.0 5.1 83 1.2 ENE 9 13 5 7 1026.3 1026.2 0.0
18/06:30am 9.0 6.8 6.4 84 1.2 E 7 9 4 5 1025.9 1025.8 0.0
18/06:00am 8.1 5.1 6.1 87 0.9 ENE 11 13 6 7 1025.4 1025.3 0.0
18/05:30am 8.6 6.1 6.4 86 1.0 ENE 9 13 5 7 1025.2 1025.1 0.0
18/05:00am 8.1 4.7 6.1 87 0.9 ENE 13 15 7 8 1025.2 1025.1 0.0
18/04:30am 8.0 5.8 5.5 84 1.1 ESE 6 9 3 5 1025.0 1024.9 0.0
18/04:00am 8.4 6.2 6.0 85 1.1 E 7 7 4 4 1024.7 1024.6 0.0
18/03:30am 7.8 5.4 5.3 84 1.1 E 7 9 4 5 1024.5 1024.4 0.0
18/03:00am 8.8 6.3 6.4 85 1.1 ESE 9 9 5 5 1024.4 1024.3 0.0
18/02:30am 9.2 8.4 6.5 83 1.2 CALM 0 0 0 0 1024.5 1024.4 0.0
18/02:00am 9.1 8.3 6.4 83 1.3 CALM 0 0 0 0 1024.5 1024.4 0.0
18/01:30am 11.0 9.5 8.4 84 1.3 S 6 7 3 4 1024.4 1024.3 0.0
18/01:00am 12.3 11.1 9.5 83 1.4 S 6 7 3 4 1024.4 1024.3 0.0
18/12:30am 12.1 11.5 9.1 82 1.5 SSE 2 7 1 4 1024.3 1024.2 0.0
18/12:00am 12.7 12.3 8.4 75 2.1 CALM 0 7 0 4 1024.1 1024.0 0.0
 
Date/Time
CST
Temp
°C
App
Temp
°C
Dew
Point
°C
Rel
Hum
%
Delta-T
°C
Wind Press
QNH
hPa
Press
MSL
hPa
Rain since
9am
mm
Dir  Spd
km/h
Gust
km/h
Spd
kts
Gust
kts
17/11:30pm 15.3 12.9 10.1 71 2.7 S 13 17 7 9 1024.0 1023.9 0.0
17/11:00pm 15.7 13.0 10.2 70 2.9 SSW 15 20 8 11 1023.8 1023.7 0.0
17/10:30pm 16.3 12.8 10.2 67 3.2 SSW 19 24 10 13 1023.6 1023.5 0.0
17/10:00pm 16.8 13.4 11.1 69 3.1 SSW 20 26 11 14 1023.3 1023.2 0.0
17/09:30pm 17.1 14.9 12.0 72 2.8 SSW 15 20 8 11 1023.1 1023.0 0.0
17/09:00pm 17.8 15.5 12.9 73 2.7 SW 17 26 9 14 1023.0 1022.9 0.0
17/08:30pm 18.0 15.9 13.7 76 2.4 SW 17 20 9 11 1022.7 1022.6 0.0
17/08:00pm 18.2 15.9 12.9 71 3.0 SW 17 20 9 11 1022.5 1022.4 0.0
17/07:30pm 18.4 15.5 12.2 67 3.4 SSW 19 24 10 13 1022.2 1022.1 0.0
17/07:00pm 18.8 15.3 12.1 65 3.7 SSW 22 32 12 17 1021.5 1021.4 0.0
17/06:30pm 19.3 15.0 12.1 63 4.0 SSW 26 35 14 19 1021.0 1020.9 0.0
17/06:00pm 20.0 16.9 14.4 70 3.3 SW 24 32 13 17 1020.3 1020.2 0.0
17/05:30pm 20.8 17.9 14.0 65 3.9 SSW 22 28 12 15 1019.5 1019.4 0.0
17/05:00pm 21.4 18.0 13.6 61 4.5 SSW 24 32 13 17 1019.1 1019.0 0.0
17/04:30pm 22.6 17.3 13.1 55 5.5 SSW 33 44 18 24 1018.4 1018.3 0.0
17/04:00pm 23.0 18.8 12.3 51 6.1 SSW 26 35 14 19 1017.8 1017.7 0.0
17/03:30pm 24.0 20.4 13.2 50 6.3 SSW 24 30 13 16 1017.4 1017.3 0.0
17/03:00pm 23.7 19.6 13.8 53 5.8 SSW 28 35 15 19 1017.1 1017.0 0.0
17/02:30pm 24.4 19.7 13.3 50 6.5 SSW 30 37 16 20 1016.5 1016.4 0.0
17/02:00pm 25.0 20.3 13.2 48 6.9 SW 30 41 16 22 1016.0 1015.9 0.0
17/01:30pm 27.1 21.9 11.6 38 8.9 WSW 30 37 16 20 1015.8 1015.7 0.0
17/01:02pm 30.0 21.9 10.0 29 11.3 WNW 43 56 23 30 1015.7 1015.6 0.0
17/01:00pm 32.6 23.0 3.5 16 15.0 NW 43 56 23 30 1015.6 1015.5 0.0
17/12:30pm 31.4 20.9 1.7 15 14.8 NNW 46 59 25 32 1016.0 1015.9 0.0
17/12:00pm 30.4 20.5 2.6 17 13.9 NNW 44 57 24 31 1016.1 1016.0 0.0
17/11:30am 28.9 19.2 3.7 20 12.8 NNW 44 54 24 29 1016.5 1016.4 0.0
17/11:00am 28.9 18.7 3.0 19 13.0 NW 46 57 25 31 1016.5 1016.4 0.0
17/10:30am 29.0 18.6 2.3 18 13.2 NNW 46 56 25 30 1016.1 1016.0 0.0
17/10:00am 28.9 19.0 3.0 19 13.0 NNW 44 59 24 32 1016.0 1015.9 0.0
17/09:41am 27.9 19.7 2.9 20 12.4 N 35 54 19 29 1016.3 1016.2 0.0
17/09:30am 27.2 19.2 3.7 22 11.8 N 35 46 19 25 1016.5 1016.4 0.0
17/09:00am 26.3 19.2 3.5 23 11.3 N 30 43 16 23 1017.0 1016.9 0.0
17/08:30am 26.7 20.0 3.9 23 11.4 NNW 28 35 15 19 1017.3 1017.2 0.0
17/08:00am 26.2 16.7 4.1 24 11.1 NNW 43 61 23 33 1017.2 1017.1 0.0
17/07:30am 25.5 18.1 5.1 27 10.4 NW 33 41 18 22 1015.9 1015.8 0.0
17/07:00am 25.7 18.0 3.6 24 10.9 NW 33 41 18 22 1015.3 1015.2 0.0
17/06:30am 26.8 19.7 3.3 22 11.7 WNW 30 39 16 21 1015.2 1015.0 0.0
17/06:20am 27.4 20.2 3.2 21 12.0 NW 30 41 16 22 1014.7 1014.5 0.0
17/06:00am 27.9 19.0 2.9 20 12.4 NNW 39 48 21 26 1013.3 1013.2 0.0
17/05:30am 28.2 19.3 3.1 20 12.5 N 39 50 21 27 1012.9 1012.8 0.0
17/05:00am 28.4 19.4 2.6 19 12.8 N 39 50 21 27 1012.4 1012.3 0.0
17/04:30am 28.3 19.3 2.5 19 12.8 N 39 50 21 27 1012.2 1012.1 0.0
17/04:00am 26.4 20.0 3.0 22 11.5 NNE 26 33 14 18 1012.1 1012.0 0.0
17/03:30am 26.5 19.7 3.1 22 11.6 N 28 37 15 20 1012.4 1012.3 0.0
17/03:00am 25.8 18.6 3.1 23 11.2 NNE 30 37 16 20 1012.4 1012.3 0.0
17/02:30am 25.4 17.8 2.8 23 11.0 NNE 32 37 17 20 1012.6 1012.5 0.0
17/02:00am 25.7 17.4 2.4 22 11.3 N 35 44 19 24 1012.8 1012.7 0.0
17/01:30am 25.9 17.7 2.6 22 11.4 N 35 43 19 23 1012.9 1012.8 0.0
17/01:00am 26.1 17.5 2.7 22 11.4 N 37 48 20 26 1013.1 1013.0 0.0
17/12:30am 26.0 18.2 2.7 22 11.4 N 33 46 18 25 1013.0 1012.9 0.0
17/12:00am 26.4 17.7 2.3 21 11.7 NNE 37 44 20 24 1013.0 1012.9 0.0
 
Date/Time
CST
Temp
°C
App
Temp
°C
Dew
Point
°C
Rel
Hum
%
Delta-T
°C
Wind Press
QNH
hPa
Press
MSL
hPa
Rain since
9am
mm
Dir  Spd
km/h
Gust
km/h
Spd
kts
Gust
kts
16/11:30pm 26.1 18.5 2.7 22 11.4 NNE 32 43 17 23 1013.6 1013.4 0.0
16/11:00pm 26.6 19.3 2.5 21 11.8 NNE 30 35 16 19 1014.1 1013.9 0.0
16/10:30pm 26.9 20.0 2.7 21 11.9 NNE 28 32 15 17 1014.2 1014.0 0.0
16/10:00pm 26.2 21.0 3.5 23 11.3 NNE 20 24 11 13 1014.4 1014.2 0.0
16/09:30pm 25.3 18.9 3.3 24 10.8 NNE 26 28 14 15 1014.4 1014.2 0.0
16/09:00pm 25.3 19.3 3.3 24 10.8 NNE 24 28 13 15 1014.6 1014.4 0.0
16/08:30pm 25.9 20.0 3.8 24 11.0 NNE 24 28 13 15 1014.5 1014.3 0.0
16/08:00pm 25.2 20.0 3.8 25 10.6 NNE 20 22 11 12 1014.4 1014.2 0.0
16/07:30pm 25.5 20.5 3.5 24 10.9 NNE 19 20 10 11 1014.2 1014.0 0.0
16/07:00pm 28.3 23.2 3.9 21 12.4 N 20 20 11 11 1014.1 1013.9 0.0
16/06:30pm 28.1 22.8 3.0 20 12.5 N 20 20 11 11 1013.9 1013.7 0.0
16/06:00pm 29.4 24.2 3.4 19 13.1 N 20 22 11 12 1013.7 1013.5 0.0
16/05:30pm 31.7 25.6 2.8 16 14.7 NNW 24 30 13 16 1013.3 1013.2 0.0
16/05:00pm 33.3 25.8 3.2 15 15.5 NNW 32 37 17 20 1013.1 1013.0 0.0

Latest Capital City Observations: Canberra | Sydney | Melbourne | Brisbane | Adelaide | Perth | Hobart | Darwin

Other formats

Comma delimited format used in spreadsheet applications
http://www.bom.gov.au/fwo/IDS60901/IDS60901.95671.axf

JavaScript Object Notation format (JSON) in row-major order
http://www.bom.gov.au/fwo/IDS60901/IDS60901.95671.json

Data quality

Most of these data are generated automatically and are frequently updated. Quality checks on data are not normally performed. It is possible for incorrect values to appear. Refer to information at About Latest Weather Observations and please check the disclaimer before using these data.